Terminal Aerodrome Forecast
Issued by NWS

Home | Current Version | Previous Version | Graphics & Text | Print | Product List | Glossary On
Versions: 1 2 3 4 5 6 7 8 9 10 11 12 13 14
000
FTUS43 KFGF 232300
TAFBJI
TAF
KBJI 232321Z 2400/2424 33006KT P6SM OVC004
      TEMPO 2400/2403 4SM BR
     FM240300 33006KT 5SM BR OVC003
     FM241800 VRB05KT P6SM OVC008=

USA.gov is the U.S. government's official web portal to all federal, state and local government web resources and services.